sensor_id;sensor_type;location;lat;lon;timestamp;temperature;humidity
17437;DHT22;72029;52.198;5.422;2023-08-12T00:00:10;20.20;83.10
17437;DHT22;72029;52.198;5.422;2023-08-12T00:02:41;20.20;83.10
17437;DHT22;72029;52.198;5.422;2023-08-12T00:05:13;20.20;83.10
17437;DHT22;72029;52.198;5.422;2023-08-12T00:07:42;20.20;83.10
17437;DHT22;72029;52.198;5.422;2023-08-12T00:10:12;20.20;83.10
17437;DHT22;72029;52.198;5.422;2023-08-12T00:12:42;20.20;83.10
17437;DHT22;72029;52.198;5.422;2023-08-12T00:15:11;20.20;83.10
17437;DHT22;72029;52.198;5.422;2023-08-12T00:17:40;20.10;83.10
17437;DHT22;72029;52.198;5.422;2023-08-12T00:20:12;20.10;83.10
17437;DHT22;72029;52.198;5.422;2023-08-12T00:22:41;20.10;83.10
17437;DHT22;72029;52.198;5.422;2023-08-12T00:25:10;20.10;83.10
17437;DHT22;72029;52.198;5.422;2023-08-12T00:27:39;20.00;83.10
17437;DHT22;72029;52.198;5.422;2023-08-12T00:30:09;20.00;83.10
17437;DHT22;72029;52.198;5.422;2023-08-12T00:32:38;20.00;83.10
17437;DHT22;72029;52.198;5.422;2023-08-12T00:35:07;20.10;83.10
17437;DHT22;72029;52.198;5.422;2023-08-12T00:37:39;20.10;83.10
17437;DHT22;72029;52.198;5.422;2023-08-12T00:40:10;20.00;83.10
17437;DHT22;72029;52.198;5.422;2023-08-12T00:42:39;20.00;83.10
17437;DHT22;72029;52.198;5.422;2023-08-12T00:45:10;20.00;83.10
17437;DHT22;72029;52.198;5.422;2023-08-12T00:47:40;20.10;83.10
17437;DHT22;72029;52.198;5.422;2023-08-12T00:50:12;20.10;83.10
17437;DHT22;72029;52.198;5.422;2023-08-12T00:52:45;20.00;83.10
17437;DHT22;72029;52.198;5.422;2023-08-12T00:55:15;19.90;83.10
17437;DHT22;72029;52.198;5.422;2023-08-12T00:57:45;19.90;83.10
17437;DHT22;72029;52.198;5.422;2023-08-12T01:00:15;19.90;83.10
17437;DHT22;72029;52.198;5.422;2023-08-12T01:02:47;19.90;83.10
17437;DHT22;72029;52.198;5.422;2023-08-12T01:05:17;19.90;83.10
17437;DHT22;72029;52.198;5.422;2023-08-12T01:07:49;19.80;83.10
17437;DHT22;72029;52.198;5.422;2023-08-12T01:10:20;19.80;83.10
17437;DHT22;72029;52.198;5.422;2023-08-12T01:12:54;19.80;83.10
17437;DHT22;72029;52.198;5.422;2023-08-12T01:15:35;19.80;83.10
17437;DHT22;72029;52.198;5.422;2023-08-12T01:18:06;19.70;83.10
17437;DHT22;72029;52.198;5.422;2023-08-12T01:20:36;19.70;83.10
17437;DHT22;72029;52.198;5.422;2023-08-12T01:23:14;19.70;83.10
17437;DHT22;72029;52.198;5.422;2023-08-12T01:25:45;19.70;83.10
17437;DHT22;72029;52.198;5.422;2023-08-12T01:28:14;19.70;83.10
17437;DHT22;72029;52.198;5.422;2023-08-12T01:30:47;19.70;83.10
17437;DHT22;72029;52.198;5.422;2023-08-12T01:33:31;19.70;83.10
17437;DHT22;72029;52.198;5.422;2023-08-12T01:36:09;19.70;83.10
17437;DHT22;72029;52.198;5.422;2023-08-12T01:38:46;19.60;83.10
17437;DHT22;72029;52.198;5.422;2023-08-12T01:41:19;19.60;83.10
17437;DHT22;72029;52.198;5.422;2023-08-12T01:43:51;19.60;83.10
17437;DHT22;72029;52.198;5.422;2023-08-12T01:46:21;19.70;83.10
17437;DHT22;72029;52.198;5.422;2023-08-12T01:48:50;19.70;83.10
17437;DHT22;72029;52.198;5.422;2023-08-12T01:51:19;19.70;83.10
17437;DHT22;72029;52.198;5.422;2023-08-12T01:53:51;19.70;83.10
17437;DHT22;72029;52.198;5.422;2023-08-12T01:56:20;19.60;83.10
17437;DHT22;72029;52.198;5.422;2023-08-12T01:58:48;19.60;83.10
17437;DHT22;72029;52.198;5.422;2023-08-12T02:01:17;19.60;83.10
17437;DHT22;72029;52.198;5.422;2023-08-12T02:03:46;19.60;83.10
17437;DHT22;72029;52.198;5.422;2023-08-12T02:06:15;19.60;83.10
17437;DHT22;72029;52.198;5.422;2023-08-12T02:08:45;19.60;83.10
17437;DHT22;72029;52.198;5.422;2023-08-12T02:11:16;19.60;83.10
17437;DHT22;72029;52.198;5.422;2023-08-12T02:13:45;19.60;83.10
17437;DHT22;72029;52.198;5.422;2023-08-12T02:16:14;19.70;83.10
17437;DHT22;72029;52.198;5.422;2023-08-12T02:18:43;19.60;83.10
17437;DHT22;72029;52.198;5.422;2023-08-12T02:21:12;19.50;83.10
17437;DHT22;72029;52.198;5.422;2023-08-12T02:23:41;19.50;83.10
17437;DHT22;72029;52.198;5.422;2023-08-12T02:26:10;19.70;83.10
17437;DHT22;72029;52.198;5.422;2023-08-12T02:28:41;19.70;83.10
17437;DHT22;72029;52.198;5.422;2023-08-12T02:31:10;19.70;83.10
17437;DHT22;72029;52.198;5.422;2023-08-12T02:33:39;19.70;83.10
17437;DHT22;72029;52.198;5.422;2023-08-12T02:36:08;19.80;83.10
17437;DHT22;72029;52.198;5.422;2023-08-12T02:38:38;19.80;83.10
17437;DHT22;72029;52.198;5.422;2023-08-12T02:41:07;19.80;83.10
17437;DHT22;72029;52.198;5.422;2023-08-12T02:43:36;19.80;83.10
17437;DHT22;72029;52.198;5.422;2023-08-12T02:46:07;19.80;83.10
17437;DHT22;72029;52.198;5.422;2023-08-12T02:48:36;19.80;83.10
17437;DHT22;72029;52.198;5.422;2023-08-12T02:51:05;19.80;83.10
17437;DHT22;72029;52.198;5.422;2023-08-12T02:53:34;19.90;83.10
17437;DHT22;72029;52.198;5.422;2023-08-12T02:56:03;19.90;83.10
17437;DHT22;72029;52.198;5.422;2023-08-12T02:58:32;19.90;83.10
17437;DHT22;72029;52.198;5.422;2023-08-12T03:01:03;19.90;83.10
17437;DHT22;72029;52.198;5.422;2023-08-12T03:03:35;19.90;83.10
17437;DHT22;72029;52.198;5.422;2023-08-12T03:06:04;19.90;83.10
17437;DHT22;72029;52.198;5.422;2023-08-12T03:08:33;19.90;83.10
17437;DHT22;72029;52.198;5.422;2023-08-12T03:11:03;20.00;83.10
17437;DHT22;72029;52.198;5.422;2023-08-12T03:13:32;20.00;83.10
17437;DHT22;72029;52.198;5.422;2023-08-12T03:16:01;20.00;83.10
17437;DHT22;72029;52.198;5.422;2023-08-12T03:18:30;19.90;83.10
17437;DHT22;72029;52.198;5.422;2023-08-12T03:21:05;19.80;83.10
17437;DHT22;72029;52.198;5.422;2023-08-12T03:23:35;19.90;83.10
17437;DHT22;72029;52.198;5.422;2023-08-12T03:26:05;19.90;83.10
17437;DHT22;72029;52.198;5.422;2023-08-12T03:28:35;20.00;83.10
17437;DHT22;72029;52.198;5.422;2023-08-12T03:31:04;20.00;83.10
17437;DHT22;72029;52.198;5.422;2023-08-12T03:33:33;20.00;83.10
17437;DHT22;72029;52.198;5.422;2023-08-12T03:36:04;20.10;83.10
17437;DHT22;72029;52.198;5.422;2023-08-12T03:38:33;20.00;83.10
17437;DHT22;72029;52.198;5.422;2023-08-12T03:41:03;20.00;83.10
17437;DHT22;72029;52.198;5.422;2023-08-12T03:43:32;20.00;83.10
17437;DHT22;72029;52.198;5.422;2023-08-12T03:46:02;20.00;83.10
17437;DHT22;72029;52.198;5.422;2023-08-12T03:48:31;20.00;83.10
17437;DHT22;72029;52.198;5.422;2023-08-12T03:51:00;20.00;83.10
17437;DHT22;72029;52.198;5.422;2023-08-12T03:53:31;20.00;83.10
17437;DHT22;72029;52.198;5.422;2023-08-12T03:56:00;20.00;83.10
17437;DHT22;72029;52.198;5.422;2023-08-12T03:58:29;20.00;83.10
17437;DHT22;72029;52.198;5.422;2023-08-12T04:00:58;20.00;83.10
17437;DHT22;72029;52.198;5.422;2023-08-12T04:03:27;20.10;83.10
17437;DHT22;72029;52.198;5.422;2023-08-12T04:05:57;20.10;83.10
17437;DHT22;72029;52.198;5.422;2023-08-12T04:08:26;20.10;83.10
17437;DHT22;72029;52.198;5.422;2023-08-12T04:10:57;20.00;83.10
17437;DHT22;72029;52.198;5.422;2023-08-12T04:13:26;20.00;83.10
17437;DHT22;72029;52.198;5.422;2023-08-12T04:15:55;20.00;83.10
17437;DHT22;72029;52.198;5.422;2023-08-12T04:18:24;20.00;83.10
17437;DHT22;72029;52.198;5.422;2023-08-12T04:20:53;20.10;83.10
17437;DHT22;72029;52.198;5.422;2023-08-12T04:23:22;20.10;83.10
17437;DHT22;72029;52.198;5.422;2023-08-12T04:25:52;20.00;83.10
17437;DHT22;72029;52.198;5.422;2023-08-12T04:28:24;20.10;83.10
17437;DHT22;72029;52.198;5.422;2023-08-12T04:30:53;20.10;83.10
17437;DHT22;72029;52.198;5.422;2023-08-12T04:33:23;20.10;83.10
17437;DHT22;72029;52.198;5.422;2023-08-12T04:35:53;20.10;83.10
17437;DHT22;72029;52.198;5.422;2023-08-12T04:38:22;20.10;83.10
17437;DHT22;72029;52.198;5.422;2023-08-12T04:40:53;20.10;83.10
17437;DHT22;72029;52.198;5.422;2023-08-12T04:43:25;20.10;83.10
17437;DHT22;72029;52.198;5.422;2023-08-12T04:45:54;20.10;83.10
17437;DHT22;72029;52.198;5.422;2023-08-12T04:48:23;20.20;83.10
17437;DHT22;72029;52.198;5.422;2023-08-12T04:50:52;20.20;83.10
17437;DHT22;72029;52.198;5.422;2023-08-12T04:53:25;20.30;83.10
17437;DHT22;72029;52.198;5.422;2023-08-12T04:55:55;20.40;83.10
17437;DHT22;72029;52.198;5.422;2023-08-12T04:58:27;20.40;83.10
17437;DHT22;72029;52.198;5.422;2023-08-12T05:00:57;20.30;83.10
17437;DHT22;72029;52.198;5.422;2023-08-12T05:03:26;20.30;83.10
17437;DHT22;72029;52.198;5.422;2023-08-12T05:05:54;20.30;83.10
17437;DHT22;72029;52.198;5.422;2023-08-12T05:08:23;20.30;83.10
17437;DHT22;72029;52.198;5.422;2023-08-12T05:10:52;20.30;83.10
17437;DHT22;72029;52.198;5.422;2023-08-12T05:13:21;20.30;83.10
17437;DHT22;72029;52.198;5.422;2023-08-12T05:15:53;20.30;83.10
17437;DHT22;72029;52.198;5.422;2023-08-12T05:18:23;20.30;83.10
17437;DHT22;72029;52.198;5.422;2023-08-12T05:20:52;20.40;83.10
17437;DHT22;72029;52.198;5.422;2023-08-12T05:23:21;20.40;83.10
17437;DHT22;72029;52.198;5.422;2023-08-12T05:25:50;20.30;83.10
17437;DHT22;72029;52.198;5.422;2023-08-12T05:28:19;20.30;83.10
17437;DHT22;72029;52.198;5.422;2023-08-12T05:30:48;20.40;83.10
17437;DHT22;72029;52.198;5.422;2023-08-12T05:33:19;20.40;83.10
17437;DHT22;72029;52.198;5.422;2023-08-12T05:35:49;20.40;83.10
17437;DHT22;72029;52.198;5.422;2023-08-12T05:38:18;20.40;83.10
17437;DHT22;72029;52.198;5.422;2023-08-12T05:40:47;20.50;83.10
17437;DHT22;72029;52.198;5.422;2023-08-12T05:43:16;20.70;83.10
17437;DHT22;72029;52.198;5.422;2023-08-12T05:45:45;20.90;83.10
17437;DHT22;72029;52.198;5.422;2023-08-12T05:48:14;20.80;83.10
17437;DHT22;72029;52.198;5.422;2023-08-12T05:50:46;20.90;83.10
17437;DHT22;72029;52.198;5.422;2023-08-12T05:53:14;20.80;83.10
17437;DHT22;72029;52.198;5.422;2023-08-12T05:55:43;21.00;83.10
17437;DHT22;72029;52.198;5.422;2023-08-12T05:58:12;21.10;83.10
17437;DHT22;72029;52.198;5.422;2023-08-12T06:00:41;21.20;83.10
17437;DHT22;72029;52.198;5.422;2023-08-12T06:03:11;21.10;83.10
17437;DHT22;72029;52.198;5.422;2023-08-12T06:05:41;21.10;83.10
17437;DHT22;72029;52.198;5.422;2023-08-12T06:08:15;20.60;83.10
17437;DHT22;72029;52.198;5.422;2023-08-12T06:10:44;20.30;83.10
17437;DHT22;72029;52.198;5.422;2023-08-12T06:13:13;20.10;83.10
17437;DHT22;72029;52.198;5.422;2023-08-12T06:15:42;20.10;83.10
17437;DHT22;72029;52.198;5.422;2023-08-12T06:18:10;19.90;83.10
17437;DHT22;72029;52.198;5.422;2023-08-12T06:20:39;20.00;83.10
17437;DHT22;72029;52.198;5.422;2023-08-12T06:23:11;20.00;83.10
17437;DHT22;72029;52.198;5.422;2023-08-12T06:25:40;19.90;83.10
17437;DHT22;72029;52.198;5.422;2023-08-12T06:28:09;19.80;83.10
17437;DHT22;72029;52.198;5.422;2023-08-12T06:30:38;19.80;83.10
17437;DHT22;72029;52.198;5.422;2023-08-12T06:33:07;19.90;83.10
17437;DHT22;72029;52.198;5.422;2023-08-12T06:35:36;19.80;83.10
17437;DHT22;72029;52.198;5.422;2023-08-12T06:38:05;19.80;83.10
17437;DHT22;72029;52.198;5.422;2023-08-12T06:40:38;19.80;83.10
17437;DHT22;72029;52.198;5.422;2023-08-12T06:43:07;19.70;83.10
17437;DHT22;72029;52.198;5.422;2023-08-12T06:45:36;19.60;83.10
17437;DHT22;72029;52.198;5.422;2023-08-12T06:48:06;19.50;83.10
17437;DHT22;72029;52.198;5.422;2023-08-12T06:50:35;19.40;83.10
17437;DHT22;72029;52.198;5.422;2023-08-12T06:53:04;19.30;83.10
17437;DHT22;72029;52.198;5.422;2023-08-12T06:55:33;19.30;83.10
17437;DHT22;72029;52.198;5.422;2023-08-12T06:58:04;19.30;83.10
17437;DHT22;72029;52.198;5.422;2023-08-12T07:00:33;19.40;83.10
17437;DHT22;72029;52.198;5.422;2023-08-12T07:03:02;19.50;83.10
17437;DHT22;72029;52.198;5.422;2023-08-12T07:05:32;19.50;83.10
17437;DHT22;72029;52.198;5.422;2023-08-12T07:08:01;19.50;83.10
17437;DHT22;72029;52.198;5.422;2023-08-12T07:10:30;19.70;83.10
17437;DHT22;72029;52.198;5.422;2023-08-12T07:12:59;19.60;83.10
17437;DHT22;72029;52.198;5.422;2023-08-12T07:15:30;19.80;83.10
17437;DHT22;72029;52.198;5.422;2023-08-12T07:17:59;19.90;83.10
17437;DHT22;72029;52.198;5.422;2023-08-12T07:20:28;19.90;83.10
17437;DHT22;72029;52.198;5.422;2023-08-12T07:22:57;19.90;83.10
17437;DHT22;72029;52.198;5.422;2023-08-12T07:25:26;19.90;83.10
17437;DHT22;72029;52.198;5.422;2023-08-12T07:27:55;19.90;83.10
17437;DHT22;72029;52.198;5.422;2023-08-12T07:30:24;19.90;83.10
17437;DHT22;72029;52.198;5.422;2023-08-12T07:32:56;19.90;83.10
17437;DHT22;72029;52.198;5.422;2023-08-12T07:35:25;19.90;83.10
17437;DHT22;72029;52.198;5.422;2023-08-12T07:37:54;19.90;83.10
17437;DHT22;72029;52.198;5.422;2023-08-12T07:40:23;19.90;83.10
17437;DHT22;72029;52.198;5.422;2023-08-12T07:42:52;20.00;83.10
17437;DHT22;72029;52.198;5.422;2023-08-12T07:45:22;20.00;83.10
17437;DHT22;72029;52.198;5.422;2023-08-12T07:47:51;20.00;83.10
17437;DHT22;72029;52.198;5.422;2023-08-12T07:50:23;19.70;83.10
17437;DHT22;72029;52.198;5.422;2023-08-12T07:52:52;19.80;83.10
17437;DHT22;72029;52.198;5.422;2023-08-12T07:55:21;19.80;83.10
17437;DHT22;72029;52.198;5.422;2023-08-12T07:57:49;19.90;83.10
17437;DHT22;72029;52.198;5.422;2023-08-12T08:00:19;20.00;83.10
17437;DHT22;72029;52.198;5.422;2023-08-12T08:02:48;20.00;83.10
17437;DHT22;72029;52.198;5.422;2023-08-12T08:05:17;19.90;83.10
17437;DHT22;72029;52.198;5.422;2023-08-12T08:07:48;19.90;83.10
17437;DHT22;72029;52.198;5.422;2023-08-12T08:10:18;19.80;83.10
17437;DHT22;72029;52.198;5.422;2023-08-12T08:12:46;19.80;83.10
17437;DHT22;72029;52.198;5.422;2023-08-12T08:15:15;19.80;83.10
17437;DHT22;72029;52.198;5.422;2023-08-12T08:17:45;19.80;83.10
17437;DHT22;72029;52.198;5.422;2023-08-12T08:20:14;19.90;83.10
17437;DHT22;72029;52.198;5.422;2023-08-12T08:22:42;19.90;83.10
17437;DHT22;72029;52.198;5.422;2023-08-12T08:25:15;20.00;83.10
17437;DHT22;72029;52.198;5.422;2023-08-12T08:27:44;20.00;83.10
17437;DHT22;72029;52.198;5.422;2023-08-12T08:30:13;20.00;83.10
17437;DHT22;72029;52.198;5.422;2023-08-12T08:32:42;19.90;83.10
17437;DHT22;72029;52.198;5.422;2023-08-12T08:35:12;20.10;83.10
17437;DHT22;72029;52.198;5.422;2023-08-12T08:37:41;20.00;83.10
17437;DHT22;72029;52.198;5.422;2023-08-12T08:40:11;20.10;83.10
17437;DHT22;72029;52.198;5.422;2023-08-12T08:42:43;20.00;83.10
17437;DHT22;72029;52.198;5.422;2023-08-12T08:45:16;20.00;83.10
17437;DHT22;72029;52.198;5.422;2023-08-12T08:47:47;20.00;83.10
17437;DHT22;72029;52.198;5.422;2023-08-12T08:50:18;19.90;83.10
17437;DHT22;72029;52.198;5.422;2023-08-12T08:52:48;19.80;83.10
17437;DHT22;72029;52.198;5.422;2023-08-12T08:55:18;19.90;83.10
17437;DHT22;72029;52.198;5.422;2023-08-12T08:57:51;20.00;83.10
17437;DHT22;72029;52.198;5.422;2023-08-12T09:00:20;20.00;83.10
17437;DHT22;72029;52.198;5.422;2023-08-12T09:02:50;20.00;83.10
17437;DHT22;72029;52.198;5.422;2023-08-12T09:05:22;19.50;83.10
17437;DHT22;72029;52.198;5.422;2023-08-12T09:07:54;19.20;83.10
17437;DHT22;72029;52.198;5.422;2023-08-12T09:10:26;19.20;83.10
17437;DHT22;72029;52.198;5.422;2023-08-12T09:12:59;18.90;83.10
17437;DHT22;72029;52.198;5.422;2023-08-12T09:15:29;18.40;83.10
17437;DHT22;72029;52.198;5.422;2023-08-12T09:17:58;17.70;83.10
17437;DHT22;72029;52.198;5.422;2023-08-12T09:20:27;17.50;83.10
17437;DHT22;72029;52.198;5.422;2023-08-12T09:22:56;17.30;83.10
17437;DHT22;72029;52.198;5.422;2023-08-12T09:25:28;17.50;83.10
17437;DHT22;72029;52.198;5.422;2023-08-12T09:28:01;17.50;83.10
17437;DHT22;72029;52.198;5.422;2023-08-12T09:30:30;17.80;83.10
17437;DHT22;72029;52.198;5.422;2023-08-12T09:33:00;17.80;83.10
17437;DHT22;72029;52.198;5.422;2023-08-12T09:35:34;17.90;83.10
17437;DHT22;72029;52.198;5.422;2023-08-12T09:38:05;18.00;83.10
17437;DHT22;72029;52.198;5.422;2023-08-12T09:40:36;18.10;83.10
17437;DHT22;72029;52.198;5.422;2023-08-12T09:43:08;17.90;83.10
17437;DHT22;72029;52.198;5.422;2023-08-12T09:45:37;18.00;83.10
17437;DHT22;72029;52.198;5.422;2023-08-12T09:48:06;18.00;83.10
17437;DHT22;72029;52.198;5.422;2023-08-12T09:50:36;18.30;83.10
17437;DHT22;72029;52.198;5.422;2023-08-12T09:53:06;18.30;83.10
17437;DHT22;72029;52.198;5.422;2023-08-12T09:55:39;18.50;83.10
17437;DHT22;72029;52.198;5.422;2023-08-12T09:58:12;18.70;83.10
17437;DHT22;72029;52.198;5.422;2023-08-12T10:00:47;18.90;83.10
17437;DHT22;72029;52.198;5.422;2023-08-12T10:03:18;18.90;83.10
17437;DHT22;72029;52.198;5.422;2023-08-12T10:05:49;18.90;83.10
17437;DHT22;72029;52.198;5.422;2023-08-12T10:08:19;18.70;83.10
17437;DHT22;72029;52.198;5.422;2023-08-12T10:10:49;18.70;83.10
17437;DHT22;72029;52.198;5.422;2023-08-12T10:13:21;18.80;83.10
17437;DHT22;72029;52.198;5.422;2023-08-12T10:15:51;19.10;83.10
17437;DHT22;72029;52.198;5.422;2023-08-12T10:18:22;19.50;83.10
17437;DHT22;72029;52.198;5.422;2023-08-12T10:20:54;19.60;83.10
17437;DHT22;72029;52.198;5.422;2023-08-12T10:23:26;20.10;83.10
17437;DHT22;72029;52.198;5.422;2023-08-12T10:25:58;20.20;83.10
17437;DHT22;72029;52.198;5.422;2023-08-12T10:28:33;20.50;83.00
17437;DHT22;72029;52.198;5.422;2023-08-12T10:31:03;20.60;82.60
17437;DHT22;72029;52.198;5.422;2023-08-12T10:33:36;21.00;83.00
17437;DHT22;72029;52.198;5.422;2023-08-12T10:36:06;21.20;81.10
17437;DHT22;72029;52.198;5.422;2023-08-12T10:38:36;20.80;82.70
17437;DHT22;72029;52.198;5.422;2023-08-12T10:41:18;21.60;82.10
17437;DHT22;72029;52.198;5.422;2023-08-12T10:43:59;21.50;79.00
17437;DHT22;72029;52.198;5.422;2023-08-12T10:46:31;21.40;78.60
17437;DHT22;72029;52.198;5.422;2023-08-12T10:49:05;21.10;79.00
17437;DHT22;72029;52.198;5.422;2023-08-12T10:51:41;21.00;78.90
17437;DHT22;72029;52.198;5.422;2023-08-12T10:54:21;21.20;80.00
17437;DHT22;72029;52.198;5.422;2023-08-12T10:57:08;21.30;78.30
17437;DHT22;72029;52.198;5.422;2023-08-12T10:59:57;21.00;77.90
17437;DHT22;72029;52.198;5.422;2023-08-12T11:02:27;21.00;77.50
17437;DHT22;72029;52.198;5.422;2023-08-12T11:05:03;20.90;78.70
17437;DHT22;72029;52.198;5.422;2023-08-12T11:07:38;20.70;77.80
17437;DHT22;72029;52.198;5.422;2023-08-12T11:10:13;21.20;78.50
17437;DHT22;72029;52.198;5.422;2023-08-12T11:12:48;21.30;76.70
17437;DHT22;72029;52.198;5.422;2023-08-12T11:15:34;21.50;76.40
17437;DHT22;72029;52.198;5.422;2023-08-12T11:18:08;21.70;74.40
17437;DHT22;72029;52.198;5.422;2023-08-12T11:20:39;21.90;73.10
17437;DHT22;72029;52.198;5.422;2023-08-12T11:23:09;23.50;66.50
17437;DHT22;72029;52.198;5.422;2023-08-12T11:25:42;24.30;62.20
17437;DHT22;72029;52.198;5.422;2023-08-12T11:28:17;24.70;58.40
17437;DHT22;72029;52.198;5.422;2023-08-12T11:30:49;24.80;58.50
17437;DHT22;72029;52.198;5.422;2023-08-12T11:33:18;23.90;58.30
17437;DHT22;72029;52.198;5.422;2023-08-12T11:35:48;23.40;60.40
17437;DHT22;72029;52.198;5.422;2023-08-12T11:38:18;24.10;58.20
17437;DHT22;72029;52.198;5.422;2023-08-12T11:40:47;24.60;53.80
17437;DHT22;72029;52.198;5.422;2023-08-12T11:43:21;25.70;53.60
17437;DHT22;72029;52.198;5.422;2023-08-12T11:45:55;25.50;54.40
17437;DHT22;72029;52.198;5.422;2023-08-12T11:48:24;25.50;54.40
17437;DHT22;72029;52.198;5.422;2023-08-12T11:50:55;25.40;53.10
17437;DHT22;72029;52.198;5.422;2023-08-12T11:53:25;26.10;51.70
17437;DHT22;72029;52.198;5.422;2023-08-12T11:55:55;26.00;53.60
17437;DHT22;72029;52.198;5.422;2023-08-12T11:58:24;25.60;54.50
17437;DHT22;72029;52.198;5.422;2023-08-12T12:00:55;24.60;54.60
17437;DHT22;72029;52.198;5.422;2023-08-12T12:03:28;25.20;54.50
17437;DHT22;72029;52.198;5.422;2023-08-12T12:05:57;25.60;54.10
17437;DHT22;72029;52.198;5.422;2023-08-12T12:08:26;26.00;52.70
17437;DHT22;72029;52.198;5.422;2023-08-12T12:11:03;25.70;54.50
17437;DHT22;72029;52.198;5.422;2023-08-12T12:13:34;26.20;53.50
17437;DHT22;72029;52.198;5.422;2023-08-12T12:16:10;27.60;50.50
17437;DHT22;72029;52.198;5.422;2023-08-12T12:18:39;26.70;50.30
17437;DHT22;72029;52.198;5.422;2023-08-12T12:21:08;26.60;50.40
17437;DHT22;72029;52.198;5.422;2023-08-12T12:23:37;27.60;49.50
17437;DHT22;72029;52.198;5.422;2023-08-12T12:26:06;27.70;48.00
17437;DHT22;72029;52.198;5.422;2023-08-12T12:28:37;27.50;47.50
17437;DHT22;72029;52.198;5.422;2023-08-12T12:31:09;27.60;46.90
17437;DHT22;72029;52.198;5.422;2023-08-12T12:33:38;26.10;49.80
17437;DHT22;72029;52.198;5.422;2023-08-12T12:36:07;26.40;50.30
17437;DHT22;72029;52.198;5.422;2023-08-12T12:38:36;26.80;49.90
17437;DHT22;72029;52.198;5.422;2023-08-12T12:41:05;27.20;47.80
17437;DHT22;72029;52.198;5.422;2023-08-12T12:43:34;27.30;49.70
17437;DHT22;72029;52.198;5.422;2023-08-12T12:46:03;28.50;47.50
17437;DHT22;72029;52.198;5.422;2023-08-12T12:48:35;28.40;47.20
17437;DHT22;72029;52.198;5.422;2023-08-12T12:51:04;28.80;45.90
17437;DHT22;72029;52.198;5.422;2023-08-12T12:53:33;27.90;45.60
17437;DHT22;72029;52.198;5.422;2023-08-12T12:56:03;27.40;47.40
17437;DHT22;72029;52.198;5.422;2023-08-12T12:58:33;27.80;45.50
17437;DHT22;72029;52.198;5.422;2023-08-12T13:01:04;27.20;47.60
17437;DHT22;72029;52.198;5.422;2023-08-12T13:03:35;26.90;46.60
17437;DHT22;72029;52.198;5.422;2023-08-12T13:06:04;26.90;46.70
17437;DHT22;72029;52.198;5.422;2023-08-12T13:08:33;27.30;46.30
17437;DHT22;72029;52.198;5.422;2023-08-12T13:11:05;26.60;49.80
17437;DHT22;72029;52.198;5.422;2023-08-12T13:13:34;25.80;51.40
17437;DHT22;72029;52.198;5.422;2023-08-12T13:16:03;26.40;50.30
17437;DHT22;72029;52.198;5.422;2023-08-12T13:18:36;27.20;48.50
17437;DHT22;72029;52.198;5.422;2023-08-12T13:21:05;27.80;46.30
17437;DHT22;72029;52.198;5.422;2023-08-12T13:23:34;27.70;45.20
17437;DHT22;72029;52.198;5.422;2023-08-12T13:26:03;27.80;44.80
17437;DHT22;72029;52.198;5.422;2023-08-12T13:28:32;27.20;46.30
17437;DHT22;72029;52.198;5.422;2023-08-12T13:31:01;26.50;48.30
17437;DHT22;72029;52.198;5.422;2023-08-12T13:33:30;26.90;47.10
17437;DHT22;72029;52.198;5.422;2023-08-12T13:36:01;27.80;45.40
17437;DHT22;72029;52.198;5.422;2023-08-12T13:38:31;27.00;44.90
17437;DHT22;72029;52.198;5.422;2023-08-12T13:40:59;26.60;46.80
17437;DHT22;72029;52.198;5.422;2023-08-12T13:43:28;26.60;47.80
17437;DHT22;72029;52.198;5.422;2023-08-12T13:45:59;27.60;45.90
17437;DHT22;72029;52.198;5.422;2023-08-12T13:48:29;27.80;45.30
17437;DHT22;72029;52.198;5.422;2023-08-12T13:51:00;28.00;46.00
17437;DHT22;72029;52.198;5.422;2023-08-12T13:53:29;27.70;44.40
17437;DHT22;72029;52.198;5.422;2023-08-12T13:55:58;27.50;45.00
17437;DHT22;72029;52.198;5.422;2023-08-12T13:58:27;26.50;46.70
17437;DHT22;72029;52.198;5.422;2023-08-12T14:00:56;26.10;48.40
17437;DHT22;72029;52.198;5.422;2023-08-12T14:03:25;27.40;43.50
17437;DHT22;72029;52.198;5.422;2023-08-12T14:05:54;27.30;42.90
17437;DHT22;72029;52.198;5.422;2023-08-12T14:08:26;28.50;41.70
17437;DHT22;72029;52.198;5.422;2023-08-12T14:10:55;27.60;42.60
17437;DHT22;72029;52.198;5.422;2023-08-12T14:13:24;26.70;43.50
17437;DHT22;72029;52.198;5.422;2023-08-12T14:15:53;26.40;43.70
17437;DHT22;72029;52.198;5.422;2023-08-12T14:18:22;25.90;45.00
17437;DHT22;72029;52.198;5.422;2023-08-12T14:20:51;26.00;45.60
17437;DHT22;72029;52.198;5.422;2023-08-12T14:23:20;25.50;45.90
17437;DHT22;72029;52.198;5.422;2023-08-12T14:25:51;26.60;45.20
17437;DHT22;72029;52.198;5.422;2023-08-12T14:28:20;25.90;45.90
17437;DHT22;72029;52.198;5.422;2023-08-12T14:30:49;25.50;48.10
17437;DHT22;72029;52.198;5.422;2023-08-12T14:33:18;25.80;48.40
17437;DHT22;72029;52.198;5.422;2023-08-12T14:35:50;25.80;48.30
17437;DHT22;72029;52.198;5.422;2023-08-12T14:38:19;26.10;47.40
17437;DHT22;72029;52.198;5.422;2023-08-12T14:40:51;26.60;45.30
17437;DHT22;72029;52.198;5.422;2023-08-12T14:43:20;26.40;45.10
17437;DHT22;72029;52.198;5.422;2023-08-12T14:45:49;26.00;45.60
17437;DHT22;72029;52.198;5.422;2023-08-12T14:48:18;26.20;46.60
17437;DHT22;72029;52.198;5.422;2023-08-12T14:50:47;26.50;46.20
17437;DHT22;72029;52.198;5.422;2023-08-12T14:53:16;26.60;45.10
17437;DHT22;72029;52.198;5.422;2023-08-12T14:55:45;26.40;45.80
17437;DHT22;72029;52.198;5.422;2023-08-12T14:58:17;26.30;46.00
17437;DHT22;72029;52.198;5.422;2023-08-12T15:00:46;26.70;45.70
17437;DHT22;72029;52.198;5.422;2023-08-12T15:03:15;27.00;45.10
17437;DHT22;72029;52.198;5.422;2023-08-12T15:05:44;26.80;47.10
17437;DHT22;72029;52.198;5.422;2023-08-12T15:08:13;26.40;47.30
17437;DHT22;72029;52.198;5.422;2023-08-12T15:10:42;25.70;47.90
17437;DHT22;72029;52.198;5.422;2023-08-12T15:13:11;25.20;50.20
17437;DHT22;72029;52.198;5.422;2023-08-12T15:15:45;26.60;47.60
17437;DHT22;72029;52.198;5.422;2023-08-12T15:18:14;25.20;50.30
17437;DHT22;72029;52.198;5.422;2023-08-12T15:20:43;24.30;52.30
17437;DHT22;72029;52.198;5.422;2023-08-12T15:23:12;24.00;54.60
17437;DHT22;72029;52.198;5.422;2023-08-12T15:25:43;24.40;53.90
17437;DHT22;72029;52.198;5.422;2023-08-12T15:28:13;24.80;52.00
17437;DHT22;72029;52.198;5.422;2023-08-12T15:30:47;25.00;51.30
17437;DHT22;72029;52.198;5.422;2023-08-12T15:33:17;24.80;52.20
17437;DHT22;72029;52.198;5.422;2023-08-12T15:35:46;25.20;52.20
17437;DHT22;72029;52.198;5.422;2023-08-12T15:38:15;25.20;51.70
17437;DHT22;72029;52.198;5.422;2023-08-12T15:40:44;25.40;50.90
17437;DHT22;72029;52.198;5.422;2023-08-12T15:43:13;24.60;53.30
17437;DHT22;72029;52.198;5.422;2023-08-12T15:45:44;24.20;55.70
17437;DHT22;72029;52.198;5.422;2023-08-12T15:48:13;24.80;53.60